Time;durP1;ratioP1;P1;durP2;ratioP2;P2;SDS_P1;SDS_P2;PMS_P1;PMS_P2;Temp;Humidity;BMP_temperature;BMP_pressure;BME280_temperature;BME280_humidity;BME280_pressure;Samples;Min_cycle;Max_cycle;Signal;HPM_P1;HPM_P2
2022/02/14 00:00:20;;;;;;;4.05;2.92;;;6.90;99.90;;;;;;473395;251;27447;-74
2022/02/14 00:02:22;;;;;;;3.67;3.00;;;6.90;99.90;;;;;;473407;251;27916;-74
2022/02/14 00:04:23;;;;;;;4.10;3.10;;;7.00;99.90;;;;;;473391;251;27539;-74
2022/02/14 00:06:25;;;;;;;4.53;2.80;;;7.00;99.90;;;;;;473413;251;27937;-74
2022/02/14 00:08:26;;;;;;;3.72;2.78;;;7.00;99.90;;;;;;473398;251;27435;-73
2022/02/14 00:10:28;;;;;;;3.00;2.80;;;7.00;99.90;;;;;;472068;251;27983;-73
2022/02/14 00:12:30;;;;;;;2.97;2.70;;;7.00;99.90;;;;;;470271;252;27448;-73
2022/02/14 00:14:31;;;;;;;3.08;2.70;;;7.00;99.90;;;;;;470260;252;27896;-73
2022/02/14 00:16:32;;;;;;;5.30;2.92;;;7.00;99.90;;;;;;470247;252;27447;-73
2022/02/14 00:18:33;;;;;;;2.73;2.40;;;7.00;99.90;;;;;;470264;252;28011;-74
2022/02/14 00:20:35;;;;;;;3.80;3.03;;;7.00;99.90;;;;;;470256;252;28785;-74
2022/02/14 00:22:36;;;;;;;4.87;2.92;;;6.90;99.90;;;;;;470256;252;28012;-74
2022/02/14 00:24:37;;;;;;;4.18;3.10;;;6.90;99.90;;;;;;470244;252;27900;-74
2022/02/14 00:26:39;;;;;;;3.35;3.05;;;6.90;99.90;;;;;;470260;252;27888;-74
2022/02/14 00:28:40;;;;;;;2.67;2.47;;;6.90;99.90;;;;;;470256;252;27444;-75
2022/02/14 00:30:41;;;;;;;3.75;2.75;;;6.90;99.90;;;;;;470256;252;28011;-73
2022/02/14 00:32:42;;;;;;;3.35;2.60;;;6.90;99.90;;;;;;470231;253;27530;-74
2022/02/14 00:34:44;;;;;;;6.15;3.12;;;6.80;99.90;;;;;;470239;252;27905;-75
2022/02/14 00:36:45;;;;;;;4.03;2.85;;;6.80;99.90;;;;;;470246;252;27428;-74
2022/02/14 00:38:46;;;;;;;4.35;3.00;;;6.80;99.90;;;;;;470251;252;27875;-74
2022/02/14 00:40:48;;;;;;;4.45;2.70;;;7.00;99.90;;;;;;470262;252;27452;-74
2022/02/14 00:42:50;;;;;;;3.28;2.60;;;6.90;99.90;;;;;;470242;252;27909;-74
2022/02/14 00:44:51;;;;;;;4.95;2.70;;;7.10;99.90;;;;;;470237;252;27883;-74
2022/02/14 00:46:53;;;;;;;6.07;3.30;;;7.10;99.90;;;;;;470263;252;27528;-74
2022/02/14 00:48:54;;;;;;;6.45;2.80;;;7.10;99.90;;;;;;470263;252;27526;-74
2022/02/14 00:50:55;;;;;;;3.83;2.55;;;7.00;99.90;;;;;;470240;252;27872;-75
2022/02/14 00:52:56;;;;;;;3.12;2.80;;;6.90;99.90;;;;;;470258;252;27551;-74
2022/02/14 00:54:59;;;;;;;2.30;2.15;;;6.90;99.90;;;;;;470246;252;27888;-73
2022/02/14 00:57:00;;;;;;;2.75;2.25;;;6.90;99.90;;;;;;470247;252;27534;-73
2022/02/14 00:59:01;;;;;;;3.17;2.47;;;6.80;99.90;;;;;;470251;252;27895;-74
2022/02/14 01:01:03;;;;;;;2.60;2.40;;;6.80;99.90;;;;;;470250;252;29392;-74
2022/02/14 01:03:04;;;;;;;3.87;2.55;;;6.90;99.90;;;;;;470233;252;27933;-73
2022/02/14 01:05:05;;;;;;;4.40;2.83;;;7.00;99.90;;;;;;470247;252;27428;-74
2022/02/14 01:07:06;;;;;;;3.40;2.50;;;6.90;99.90;;;;;;470259;252;27432;-73
2022/02/14 01:09:09;;;;;;;2.53;2.33;;;7.00;99.90;;;;;;470242;252;27915;-73
2022/02/14 01:11:09;;;;;;;2.35;2.12;;;6.90;99.90;;;;;;470257;252;27435;-73
2022/02/14 01:13:10;;;;;;;3.40;2.90;;;6.90;99.90;;;;;;470249;252;27925;-73
2022/02/14 01:15:12;;;;;;;3.60;2.72;;;6.90;99.90;;;;;;470261;252;27533;-74
2022/02/14 01:17:13;;;;;;;2.58;2.37;;;6.90;99.90;;;;;;470247;252;27892;-74
2022/02/14 01:19:14;;;;;;;2.80;2.60;;;6.80;99.90;;;;;;470251;252;27444;-74
2022/02/14 01:21:16;;;;;;;2.90;2.58;;;6.80;99.90;;;;;;470231;252;27885;-75
2022/02/14 01:23:17;;;;;;;2.83;2.62;;;6.90;99.90;;;;;;470239;252;27436;-73
2022/02/14 01:25:18;;;;;;;4.62;2.45;;;6.90;99.90;;;;;;470240;252;27961;-75
2022/02/14 01:27:19;;;;;;;3.35;2.55;;;6.90;99.90;;;;;;470259;252;27908;-73
2022/02/14 01:29:21;;;;;;;2.70;2.50;;;6.80;99.90;;;;;;470245;252;28287;-74
2022/02/14 01:31:22;;;;;;;3.33;2.67;;;6.80;99.90;;;;;;470240;252;27443;-74
2022/02/14 01:33:23;;;;;;;4.28;2.80;;;6.80;99.90;;;;;;470237;252;27884;-74
2022/02/14 01:35:25;;;;;;;3.70;3.17;;;6.70;99.90;;;;;;470246;253;27918;-74
2022/02/14 01:37:26;;;;;;;3.00;2.50;;;6.70;99.90;;;;;;470253;252;27535;-74
2022/02/14 01:39:28;;;;;;;2.95;2.50;;;6.60;99.90;;;;;;470244;253;28781;-74
2022/02/14 01:41:28;;;;;;;3.08;2.47;;;6.60;99.90;;;;;;470239;252;27617;-75
2022/02/14 01:43:30;;;;;;;2.87;2.67;;;6.40;99.90;;;;;;470230;252;27889;-73
2022/02/14 01:45:31;;;;;;;4.97;3.17;;;6.30;99.90;;;;;;470245;252;28226;-74
2022/02/14 01:47:32;;;;;;;3.53;3.03;;;6.40;99.90;;;;;;470246;252;27892;-73
2022/02/14 01:49:33;;;;;;;3.33;2.62;;;6.30;99.90;;;;;;470253;252;27428;-76
2022/02/14 01:51:35;;;;;;;3.65;2.95;;;6.30;99.90;;;;;;470232;252;27526;-74
2022/02/14 01:53:36;;;;;;;3.08;2.53;;;6.30;99.90;;;;;;470253;252;27436;-75
2022/02/14 01:55:37;;;;;;;3.37;2.72;;;6.20;99.90;;;;;;470240;252;27442;-74
2022/02/14 01:57:38;;;;;;;3.72;2.95;;;6.20;99.90;;;;;;470236;252;27940;-73
2022/02/14 01:59:40;;;;;;;4.40;2.87;;;6.10;99.90;;;;;;470237;252;27986;-74
2022/02/14 02:01:41;;;;;;;4.40;2.70;;;6.20;99.90;;;;;;470254;252;27440;-74
2022/02/14 02:03:42;;;;;;;3.22;2.83;;;6.30;99.90;;;;;;470218;252;27440;-75
2022/02/14 02:05:45;;;;;;;3.45;2.72;;;6.30;99.90;;;;;;470235;252;27436;-74
2022/02/14 02:07:45;;;;;;;3.78;3.22;;;6.30;99.90;;;;;;470239;252;27521;-75
2022/02/14 02:09:46;;;;;;;2.50;2.30;;;6.40;99.90;;;;;;470240;252;27912;-73
2022/02/14 02:14:08;;;;;;;2.80;2.53;;;6.40;99.90;;;;;;470235;253;27524;-74
2022/02/14 02:16:10;;;;;;;4.00;2.60;;;6.50;99.90;;;;;;470237;252;27452;-74
2022/02/14 02:18:11;;;;;;;3.58;2.60;;;6.50;99.90;;;;;;470233;252;27436;-74
2022/02/14 02:20:16;;;;;;;5.68;2.78;;;6.40;99.90;;;;;;470245;252;27992;-73
2022/02/14 02:22:14;;;;;;;3.10;2.78;;;6.50;99.90;;;;;;470256;250;27989;-74
2022/02/14 02:24:17;;;;;;;4.12;2.70;;;6.60;99.90;;;;;;470236;252;27416;-73
2022/02/14 02:26:16;;;;;;;6.20;2.83;;;6.60;99.90;;;;;;470213;252;27526;-75
2022/02/14 02:28:18;;;;;;;3.10;2.60;;;6.60;99.90;;;;;;470249;252;27424;-74
2022/02/14 02:30:22;;;;;;;4.30;2.90;;;6.60;99.90;;;;;;470266;252;29277;-73
2022/02/14 02:32:20;;;;;;;3.00;2.70;;;6.50;99.90;;;;;;470242;252;27939;-73
2022/02/14 02:34:21;;;;;;;3.05;2.70;;;6.50;99.90;;;;;;470285;252;27423;-74
2022/02/14 02:36:23;;;;;;;5.47;3.20;;;6.50;99.90;;;;;;470286;252;27452;-74
2022/02/14 02:38:24;;;;;;;4.50;2.60;;;6.50;99.90;;;;;;470277;252;27992;-74
2022/02/14 02:40:25;;;;;;;3.10;2.67;;;6.50;99.90;;;;;;470291;252;27890;-74
2022/02/14 02:42:27;;;;;;;3.00;2.70;;;6.60;99.90;;;;;;470281;252;27432;-73
2022/02/14 02:44:28;;;;;;;2.90;2.55;;;6.70;99.90;;;;;;470286;252;27900;-75
2022/02/14 02:46:29;;;;;;;2.75;2.50;;;6.80;99.90;;;;;;470273;252;27440;-73
2022/02/14 02:48:30;;;;;;;3.75;2.62;;;6.90;99.90;;;;;;470278;252;27435;-74
2022/02/14 02:50:32;;;;;;;2.60;2.40;;;6.90;99.90;;;;;;470284;252;27424;-74
2022/02/14 02:52:33;;;;;;;6.07;2.50;;;6.90;99.90;;;;;;470301;252;27439;-74
2022/02/14 02:54:34;;;;;;;3.55;2.42;;;7.00;99.90;;;;;;470299;252;27455;-74
2022/02/14 02:56:35;;;;;;;3.10;2.80;;;7.00;99.90;;;;;;470280;252;27891;-75
2022/02/14 02:58:37;;;;;;;3.90;2.42;;;7.10;99.90;;;;;;470290;252;27920;-73
2022/02/14 03:00:38;;;;;;;3.28;2.97;;;7.10;99.90;;;;;;470282;252;27427;-74
2022/02/14 03:02:39;;;;;;;3.37;2.40;;;7.10;99.90;;;;;;470301;252;27526;-73
2022/02/14 03:04:40;;;;;;;3.20;2.53;;;7.10;99.90;;;;;;470276;252;27881;-73
2022/02/14 03:06:42;;;;;;;2.53;2.33;;;7.10;99.90;;;;;;470289;252;27903;-74
2022/02/14 03:08:43;;;;;;;2.47;2.28;;;7.00;99.90;;;;;;470289;252;27420;-74
2022/02/14 03:10:45;;;;;;;5.53;2.62;;;6.90;99.90;;;;;;470293;252;27448;-74
2022/02/14 03:12:45;;;;;;;5.30;2.80;;;6.90;99.90;;;;;;470264;252;27996;-73
2022/02/14 03:14:47;;;;;;;7.05;3.15;;;6.90;99.90;;;;;;470284;252;28576;-74
2022/02/14 03:16:48;;;;;;;2.70;2.50;;;6.90;99.90;;;;;;470279;252;27919;-73
2022/02/14 03:18:49;;;;;;;3.55;2.40;;;6.80;99.90;;;;;;470281;252;27507;-74
2022/02/14 03:20:51;;;;;;;3.05;2.30;;;6.90;99.90;;;;;;470279;252;27560;-74
2022/02/14 03:22:53;;;;;;;5.20;2.70;;;6.80;99.90;;;;;;470281;252;27912;-73
2022/02/14 03:24:54;;;;;;;4.93;2.35;;;6.80;99.90;;;;;;470277;252;27436;-73
2022/02/14 03:26:55;;;;;;;2.75;2.12;;;6.70;99.90;;;;;;470264;252;28008;-75
2022/02/14 03:28:57;;;;;;;2.60;2.35;;;6.80;99.90;;;;;;470285;252;28021;-74
2022/02/14 03:30:58;;;;;;;2.57;2.37;;;6.80;99.90;;;;;;470291;252;27435;-73
2022/02/14 03:32:59;;;;;;;3.95;2.58;;;6.80;99.90;;;;;;470277;252;29092;-74
2022/02/14 03:35:00;;;;;;;4.53;2.60;;;6.80;99.90;;;;;;470285;252;27948;-74
2022/02/14 03:37:02;;;;;;;3.15;2.53;;;6.90;99.90;;;;;;470276;252;27428;-74
2022/02/14 03:39:03;;;;;;;2.67;2.35;;;6.80;99.90;;;;;;470291;252;27439;-73
2022/02/14 03:41:05;;;;;;;5.60;2.60;;;6.80;99.90;;;;;;470282;252;27916;-74
2022/02/14 03:43:10;;;;;;;2.40;2.20;;;6.80;99.90;;;;;;470261;252;27931;-73
2022/02/14 03:45:07;;;;;;;4.53;2.95;;;6.80;99.90;;;;;;470257;250;27447;-74
2022/02/14 03:47:10;;;;;;;3.17;2.45;;;6.90;99.90;;;;;;470254;252;27436;-74
2022/02/14 03:49:09;;;;;;;4.30;2.70;;;6.90;99.90;;;;;;470230;252;27909;-75
2022/02/14 03:51:11;;;;;;;9.25;2.40;;;6.90;99.90;;;;;;470261;252;28010;-74
2022/02/14 03:53:12;;;;;;;2.40;2.20;;;6.90;99.90;;;;;;470276;252;27444;-75
2022/02/14 03:55:13;;;;;;;3.75;2.35;;;7.00;99.90;;;;;;470262;252;27906;-73
2022/02/14 03:57:14;;;;;;;3.85;2.15;;;6.90;99.90;;;;;;470244;252;27447;-75
2022/02/14 03:59:16;;;;;;;4.50;2.10;;;6.90;99.90;;;;;;470259;252;28038;-75
2022/02/14 04:01:17;;;;;;;3.55;2.55;;;6.90;99.90;;;;;;470255;252;27439;-74
2022/02/14 04:03:19;;;;;;;2.85;2.53;;;6.90;99.90;;;;;;470263;252;27968;-74
2022/02/14 04:05:21;;;;;;;2.83;2.40;;;6.90;99.90;;;;;;470255;252;27520;-74
2022/02/14 04:07:22;;;;;;;3.30;2.50;;;6.90;99.90;;;;;;470257;252;27888;-74
2022/02/14 04:09:23;;;;;;;3.62;2.35;;;6.90;99.90;;;;;;470250;252;27990;-74
2022/02/14 04:11:24;;;;;;;3.67;2.62;;;6.90;99.90;;;;;;470262;252;27540;-74
2022/02/14 04:13:26;;;;;;;2.90;2.40;;;6.90;99.90;;;;;;470228;252;27515;-74
2022/02/14 04:15:27;;;;;;;4.32;2.40;;;6.90;99.90;;;;;;470241;252;27444;-74
2022/02/14 04:17:28;;;;;;;3.08;2.55;;;6.90;99.90;;;;;;470256;252;27880;-76
2022/02/14 04:19:29;;;;;;;4.12;2.00;;;6.80;99.90;;;;;;470248;252;27922;-73
2022/02/14 04:21:31;;;;;;;2.33;2.12;;;6.80;99.90;;;;;;470246;252;27900;-74
2022/02/14 04:23:32;;;;;;;3.10;2.20;;;6.80;99.90;;;;;;470262;252;27999;-74
2022/02/14 04:25:33;;;;;;;7.20;2.78;;;6.80;99.90;;;;;;470241;252;27432;-74
2022/02/14 04:27:35;;;;;;;5.12;2.28;;;6.70;99.90;;;;;;470238;252;27896;-74
2022/02/14 04:29:36;;;;;;;2.60;2.35;;;6.70;99.90;;;;;;470243;252;27527;-74
2022/02/14 04:31:37;;;;;;;3.60;2.92;;;6.80;99.90;;;;;;470261;252;27904;-74
2022/02/14 04:33:38;;;;;;;2.80;2.50;;;6.80;99.90;;;;;;470253;252;28006;-74
2022/02/14 04:35:41;;;;;;;3.05;2.78;;;6.70;99.90;;;;;;470248;253;27420;-74
2022/02/14 04:37:42;;;;;;;15.50;2.40;;;6.70;99.90;;;;;;470258;252;27447;-74
2022/02/14 04:39:43;;;;;;;5.90;2.80;;;6.60;99.90;;;;;;470253;252;27428;-73
2022/02/14 04:41:45;;;;;;;3.45;2.70;;;6.60;99.90;;;;;;470258;252;27992;-75
2022/02/14 04:43:46;;;;;;;2.58;2.37;;;6.60;99.90;;;;;;470268;252;27915;-73
2022/02/14 04:45:47;;;;;;;4.75;2.30;;;6.60;99.90;;;;;;470250;252;27534;-74
2022/02/14 04:47:48;;;;;;;3.00;2.60;;;6.60;99.90;;;;;;470254;252;27885;-75
2022/02/14 04:49:50;;;;;;;6.20;4.00;;;6.50;99.90;;;;;;470272;252;27899;-74
2022/02/14 04:51:51;;;;;;;2.80;2.60;;;6.60;99.90;;;;;;470248;252;27924;-74
2022/02/14 04:53:52;;;;;;;4.30;2.70;;;6.60;99.90;;;;;;470234;252;27899;-73
2022/02/14 04:55:54;;;;;;;2.92;2.70;;;6.50;99.90;;;;;;470248;252;27894;-74
2022/02/14 04:57:55;;;;;;;5.07;2.90;;;6.60;99.90;;;;;;470254;252;27916;-76
2022/02/14 04:59:56;;;;;;;2.58;2.37;;;6.70;99.90;;;;;;470242;252;28009;-74
2022/02/14 05:01:57;;;;;;;2.40;2.30;;;6.80;99.90;;;;;;470254;252;27881;-74
2022/02/14 05:03:59;;;;;;;3.78;2.80;;;6.80;99.90;;;;;;470240;252;27876;-74
2022/02/14 05:06:00;;;;;;;2.83;2.50;;;6.90;99.90;;;;;;470227;253;27416;-73
2022/02/14 05:08:01;;;;;;;2.53;2.15;;;6.90;99.90;;;;;;470256;252;27444;-74
2022/02/14 05:10:03;;;;;;;3.83;2.28;;;6.90;99.90;;;;;;470258;252;27884;-74
2022/02/14 05:12:04;;;;;;;3.83;2.20;;;7.00;99.90;;;;;;470261;252;27907;-74
2022/02/14 05:14:05;;;;;;;2.60;2.40;;;7.00;99.90;;;;;;470249;252;27448;-74
2022/02/14 05:16:06;;;;;;;3.20;2.30;;;7.00;99.90;;;;;;470244;252;27896;-74
2022/02/14 05:18:08;;;;;;;4.90;2.90;;;7.10;99.90;;;;;;470254;252;27915;-74
2022/02/14 05:20:09;;;;;;;3.30;2.27;;;7.20;99.90;;;;;;470266;252;28866;-74
2022/02/14 05:22:10;;;;;;;4.22;2.70;;;7.30;99.90;;;;;;470245;252;28881;-74
2022/02/14 05:24:12;;;;;;;3.57;2.60;;;7.30;99.90;;;;;;470261;252;27448;-73
2022/02/14 05:26:13;;;;;;;2.43;2.23;;;7.30;99.90;;;;;;470244;252;29630;-74
2022/02/14 05:28:14;;;;;;;3.10;2.45;;;7.30;99.90;;;;;;470249;252;29159;-74
2022/02/14 05:30:15;;;;;;;3.50;2.13;;;7.30;99.90;;;;;;470247;252;27518;-73
2022/02/14 05:32:17;;;;;;;6.93;2.47;;;7.30;99.90;;;;;;470252;252;27885;-73
2022/02/14 05:34:18;;;;;;;3.53;2.40;;;7.30;99.90;;;;;;470248;252;28367;-74
2022/02/14 05:36:19;;;;;;;5.00;2.50;;;7.50;99.90;;;;;;470253;252;28831;-73
2022/02/14 05:38:21;;;;;;;3.30;2.70;;;7.60;99.90;;;;;;470238;252;28010;-74
2022/02/14 05:40:22;;;;;;;5.10;2.30;;;7.60;99.90;;;;;;470248;252;27978;-75
2022/02/14 05:42:24;;;;;;;2.72;2.22;;;7.50;99.90;;;;;;470246;252;29070;-73
2022/02/14 05:44:24;;;;;;;2.70;2.50;;;7.60;99.90;;;;;;470251;252;27436;-74
2022/02/14 05:46:26;;;;;;;2.80;2.40;;;7.60;99.90;;;;;;470248;252;28431;-74
2022/02/14 05:48:27;;;;;;;3.17;2.37;;;7.60;99.90;;;;;;470258;252;27895;-73
2022/02/14 05:50:29;;;;;;;3.53;2.30;;;7.70;99.90;;;;;;470253;252;27878;-74
2022/02/14 05:52:30;;;;;;;3.20;2.23;;;7.60;99.90;;;;;;470255;252;28019;-74
2022/02/14 05:54:32;;;;;;;7.35;2.15;;;7.70;99.90;;;;;;470251;252;28406;-73
2022/02/14 05:56:33;;;;;;;5.10;2.53;;;7.70;99.90;;;;;;470258;252;27531;-74
2022/02/14 05:58:34;;;;;;;2.93;2.20;;;7.70;99.90;;;;;;470256;252;27905;-73
2022/02/14 06:00:36;;;;;;;2.33;2.17;;;7.80;99.90;;;;;;470252;252;28498;-74
2022/02/14 06:02:37;;;;;;;3.13;2.40;;;7.80;99.90;;;;;;470249;252;27448;-74
2022/02/14 06:04:38;;;;;;;2.70;2.50;;;7.80;99.90;;;;;;470238;252;28260;-73
2022/02/14 06:06:39;;;;;;;4.13;2.43;;;7.70;99.90;;;;;;470252;252;27906;-73
2022/02/14 06:08:41;;;;;;;2.50;2.30;;;7.70;99.90;;;;;;470242;252;29373;-74
2022/02/14 06:10:42;;;;;;;5.83;2.90;;;7.70;99.90;;;;;;470263;252;28435;-74
2022/02/14 06:12:43;;;;;;;2.62;2.42;;;7.60;99.90;;;;;;470260;252;27764;-73
2022/02/14 06:14:45;;;;;;;4.20;2.50;;;7.70;99.90;;;;;;470253;252;27897;-74
2022/02/14 06:16:46;;;;;;;2.77;2.57;;;7.70;99.90;;;;;;470257;252;28798;-76
2022/02/14 06:18:47;;;;;;;3.67;2.23;;;7.70;99.90;;;;;;470294;252;28379;-74
2022/02/14 06:20:49;;;;;;;4.13;2.73;;;7.70;99.90;;;;;;470243;252;28400;-74
2022/02/14 06:22:50;;;;;;;2.33;2.13;;;7.70;99.90;;;;;;470245;252;28402;-74
2022/02/14 06:24:51;;;;;;;2.75;2.30;;;7.70;99.90;;;;;;470251;252;29355;-75
2022/02/14 06:26:52;;;;;;;6.00;3.10;;;7.70;99.90;;;;;;470252;252;27440;-76
2022/02/14 06:28:54;;;;;;;3.43;3.10;;;7.70;99.90;;;;;;470253;252;28389;-74
2022/02/14 06:30:55;;;;;;;3.07;2.80;;;7.70;99.90;;;;;;470250;252;27886;-74
2022/02/14 06:32:56;;;;;;;4.20;2.80;;;7.70;99.90;;;;;;470247;252;28357;-74
2022/02/14 06:34:58;;;;;;;5.37;2.67;;;7.70;99.90;;;;;;470250;252;27801;-73
2022/02/14 06:36:59;;;;;;;6.10;2.57;;;7.80;99.90;;;;;;470238;252;28305;-74
2022/02/14 06:39:03;;;;;;;4.90;2.20;;;7.70;99.90;;;;;;470239;252;27690;-74
2022/02/14 06:41:01;;;;;;;3.17;2.33;;;7.70;99.90;;;;;;470205;252;28131;-73
2022/02/14 06:43:03;;;;;;;2.93;2.57;;;7.70;99.90;;;;;;470243;252;28000;-73
2022/02/14 06:45:04;;;;;;;5.23;2.50;;;7.60;99.90;;;;;;470254;252;28002;-74
2022/02/14 06:47:05;;;;;;;2.60;2.40;;;7.70;99.90;;;;;;470222;252;27898;-74
2022/02/14 06:49:07;;;;;;;3.27;2.47;;;7.80;99.90;;;;;;470246;252;27902;-75
2022/02/14 06:51:09;;;;;;;3.93;2.57;;;7.90;99.90;;;;;;470251;252;27955;-75
2022/02/14 06:53:09;;;;;;;3.90;2.50;;;8.00;99.90;;;;;;470227;252;27879;-73
2022/02/14 06:55:10;;;;;;;4.80;2.30;;;8.00;99.90;;;;;;470246;252;27933;-74
2022/02/14 06:57:12;;;;;;;3.83;2.50;;;8.00;99.90;;;;;;470248;252;28036;-74
2022/02/14 06:59:13;;;;;;;4.47;2.40;;;8.10;99.90;;;;;;470236;252;27783;-74
2022/02/14 07:01:14;;;;;;;4.13;3.00;;;8.00;99.90;;;;;;470247;252;27880;-74
2022/02/14 07:03:16;;;;;;;4.43;2.90;;;8.10;99.90;;;;;;470838;252;27918;-73
2022/02/14 07:05:21;;;;;;;2.80;2.50;;;8.10;99.90;;;;;;472107;251;27871;-73
2022/02/14 07:07:19;;;;;;;3.80;2.47;;;8.10;99.90;;;;;;472109;251;28028;-74
2022/02/14 07:09:19;;;;;;;6.57;3.70;;;8.10;99.90;;;;;;478386;248;27883;-73
2022/02/14 07:11:21;;;;;;;7.20;2.80;;;8.10;99.90;;;;;;474172;248;27923;-73
2022/02/14 07:13:22;;;;;;;4.77;2.90;;;8.10;99.90;;;;;;473084;251;28289;-73
2022/02/14 07:15:23;;;;;;;4.70;3.30;;;8.10;99.90;;;;;;473090;251;27921;-76
2022/02/14 07:17:25;;;;;;;6.70;3.60;;;8.20;99.90;;;;;;470900;251;28597;-74
2022/02/14 07:19:26;;;;;;;5.07;3.40;;;8.20;99.90;;;;;;471179;252;27990;-74
2022/02/14 07:21:27;;;;;;;6.33;3.67;;;8.20;99.90;;;;;;472104;251;28284;-73
2022/02/14 07:23:28;;;;;;;3.70;2.90;;;8.20;99.90;;;;;;472115;251;28101;-73
2022/02/14 07:25:30;;;;;;;7.27;3.00;;;8.30;99.90;;;;;;472128;251;28198;-74
2022/02/14 07:27:31;;;;;;;4.70;3.53;;;8.30;99.90;;;;;;472115;251;28404;-74
2022/02/14 07:29:32;;;;;;;4.90;3.40;;;8.40;99.90;;;;;;472124;251;27924;-74
2022/02/14 07:31:34;;;;;;;4.90;2.90;;;8.40;99.90;;;;;;472134;251;28005;-74
2022/02/14 07:33:35;;;;;;;5.40;2.90;;;8.40;99.90;;;;;;472114;251;27997;-74
2022/02/14 07:35:36;;;;;;;7.10;2.87;;;8.30;99.90;;;;;;472108;251;27882;-75
2022/02/14 07:37:38;;;;;;;4.30;2.83;;;8.30;99.90;;;;;;472109;252;28785;-74
2022/02/14 07:39:39;;;;;;;4.93;3.10;;;8.30;99.90;;;;;;472105;251;28353;-73
2022/02/14 07:41:40;;;;;;;5.87;2.83;;;8.30;99.90;;;;;;472124;251;28462;-73
2022/02/14 07:43:41;;;;;;;2.53;2.30;;;8.30;99.90;;;;;;472127;251;27625;-73
2022/02/14 07:45:43;;;;;;;3.20;2.60;;;8.30;99.90;;;;;;472135;251;28343;-73
2022/02/14 07:47:44;;;;;;;2.40;2.20;;;8.30;99.90;;;;;;472128;251;27955;-74
2022/02/14 07:49:45;;;;;;;4.03;2.37;;;8.30;99.90;;;;;;472122;251;27920;-73
2022/02/14 07:51:46;;;;;;;3.63;2.40;;;8.30;99.90;;;;;;472115;251;27791;-74
2022/02/14 07:53:48;;;;;;;2.70;2.40;;;8.30;99.90;;;;;;472135;251;27781;-74
2022/02/14 07:55:49;;;;;;;2.83;2.43;;;8.40;99.90;;;;;;472122;251;27554;-73
2022/02/14 07:57:51;;;;;;;2.57;2.20;;;8.40;99.90;;;;;;472113;246;28375;-74
2022/02/14 07:59:52;;;;;;;2.90;2.20;;;8.40;99.90;;;;;;472114;251;27884;-73
2022/02/14 08:01:54;;;;;;;4.23;2.40;;;8.30;99.90;;;;;;472122;250;28355;-73
2022/02/14 08:03:55;;;;;;;2.90;2.30;;;8.40;99.90;;;;;;472119;251;27814;-74
2022/02/14 08:05:57;;;;;;;3.47;2.23;;;8.40;99.90;;;;;;472107;250;27913;-74
2022/02/14 08:07:58;;;;;;;2.40;2.20;;;8.40;99.90;;;;;;472127;251;28009;-73
2022/02/14 08:10:00;;;;;;;3.63;1.90;;;8.40;99.90;;;;;;472113;251;28235;-73
2022/02/14 08:12:04;;;;;;;2.20;2.10;;;8.50;99.90;;;;;;472126;251;27542;-73
2022/02/14 08:14:02;;;;;;;2.10;1.87;;;8.50;99.90;;;;;;472134;251;28757;-73
2022/02/14 08:16:04;;;;;;;3.13;2.10;;;8.50;99.90;;;;;;472121;251;28053;-73
2022/02/14 08:18:05;;;;;;;2.50;2.20;;;8.60;99.90;;;;;;472088;250;27926;-74
2022/02/14 08:20:06;;;;;;;3.70;2.93;;;8.60;99.90;;;;;;472128;251;28796;-73
2022/02/14 08:22:07;;;;;;;2.80;2.30;;;8.70;99.90;;;;;;472124;251;27793;-73
2022/02/14 08:24:09;;;;;;;2.50;2.30;;;8.70;99.90;;;;;;472123;250;28018;-73
2022/02/14 08:26:10;;;;;;;6.37;2.57;;;8.70;99.90;;;;;;472109;251;28313;-74
2022/02/14 08:28:11;;;;;;;4.77;2.40;;;8.80;99.90;;;;;;472114;251;28370;-75
2022/02/14 08:30:13;;;;;;;3.70;2.30;;;8.80;99.90;;;;;;472131;251;27985;-74
2022/02/14 08:32:16;;;;;;;2.50;2.30;;;8.80;99.90;;;;;;472178;252;27773;-73
2022/02/14 08:34:15;;;;;;;2.40;2.20;;;8.80;99.90;;;;;;472123;251;27908;-73
2022/02/14 08:36:18;;;;;;;2.50;2.30;;;8.80;99.90;;;;;;472130;251;27913;-73
2022/02/14 08:38:19;;;;;;;4.43;2.10;;;8.80;99.90;;;;;;472104;251;27916;-74
2022/02/14 08:40:19;;;;;;;4.03;2.00;;;8.80;99.90;;;;;;472099;251;27921;-75
2022/02/14 08:42:21;;;;;;;3.10;2.03;;;8.80;99.90;;;;;;472108;251;28310;-74
2022/02/14 08:44:23;;;;;;;3.43;2.47;;;8.90;99.90;;;;;;472096;251;28463;-73
2022/02/14 08:46:24;;;;;;;4.70;2.50;;;8.90;99.90;;;;;;472108;251;27985;-74
2022/02/14 08:48:25;;;;;;;4.57;1.90;;;9.00;99.90;;;;;;472081;251;27670;-73
2022/02/14 08:50:26;;;;;;;3.50;2.50;;;9.00;99.90;;;;;;472096;251;28009;-74
2022/02/14 08:52:27;;;;;;;2.17;2.00;;;9.10;99.90;;;;;;472125;250;28454;-74
2022/02/14 08:54:28;;;;;;;3.00;1.80;;;9.10;99.90;;;;;;472122;251;27840;-74
2022/02/14 08:56:29;;;;;;;2.13;1.93;;;9.20;99.90;;;;;;472122;251;27543;-75
2022/02/14 08:58:31;;;;;;;2.63;2.13;;;9.20;99.90;;;;;;472110;251;28019;-73
2022/02/14 09:00:32;;;;;;;2.30;2.10;;;9.20;99.90;;;;;;472125;251;27869;-74
2022/02/14 09:02:33;;;;;;;2.70;2.13;;;9.30;99.90;;;;;;472113;251;28331;-74
2022/02/14 09:04:35;;;;;;;2.83;2.07;;;9.40;99.90;;;;;;472126;251;28291;-74
2022/02/14 09:06:36;;;;;;;2.57;1.83;;;9.40;99.90;;;;;;472119;251;28353;-75
2022/02/14 09:08:37;;;;;;;2.20;2.00;;;9.50;99.90;;;;;;472116;252;28364;-74
2022/02/14 09:10:38;;;;;;;2.43;2.10;;;9.50;99.90;;;;;;472103;251;28372;-74
2022/02/14 09:12:40;;;;;;;3.63;1.87;;;9.60;99.90;;;;;;472116;251;27911;-73
2022/02/14 09:14:41;;;;;;;2.40;2.20;;;9.60;99.90;;;;;;472128;251;28390;-74
2022/02/14 09:16:42;;;;;;;3.70;2.37;;;9.60;99.90;;;;;;472119;251;27944;-74
2022/02/14 09:18:44;;;;;;;1.90;1.60;;;9.60;99.90;;;;;;472104;251;27651;-74
2022/02/14 09:20:45;;;;;;;2.30;1.90;;;9.70;99.90;;;;;;472118;250;28466;-72
2022/02/14 09:22:46;;;;;;;2.73;1.87;;;9.80;99.90;;;;;;472111;245;28445;-73
2022/02/14 09:24:48;;;;;;;2.33;1.97;;;9.80;99.90;;;;;;472091;251;27858;-78
2022/02/14 09:26:49;;;;;;;3.50;2.17;;;9.80;99.90;;;;;;472105;251;27957;-73
2022/02/14 09:28:50;;;;;;;2.60;2.00;;;9.90;99.90;;;;;;472116;251;28375;-73
2022/02/14 09:30:51;;;;;;;2.13;1.93;;;9.80;99.90;;;;;;472166;251;28342;-73
2022/02/14 09:32:53;;;;;;;3.27;2.10;;;9.90;99.90;;;;;;472118;251;27859;-73
2022/02/14 09:34:54;;;;;;;1.83;1.73;;;9.80;99.90;;;;;;472107;251;28125;-74
2022/02/14 09:36:56;;;;;;;2.53;2.17;;;9.80;99.90;;;;;;472109;251;28024;-73
2022/02/14 09:38:56;;;;;;;3.13;2.20;;;9.90;99.90;;;;;;472104;251;27650;-75
2022/02/14 09:40:58;;;;;;;3.57;2.10;;;9.90;99.90;;;;;;472093;250;28529;-74
2022/02/14 09:42:59;;;;;;;3.53;2.27;;;9.80;99.90;;;;;;472115;251;28447;-74
2022/02/14 09:45:00;;;;;;;4.20;2.00;;;9.80;99.90;;;;;;472117;251;27950;-73
2022/02/14 09:47:02;;;;;;;5.93;2.20;;;9.70;99.90;;;;;;472098;251;27864;-74
2022/02/14 09:49:03;;;;;;;2.60;2.20;;;9.80;99.90;;;;;;472116;251;27664;-74
2022/02/14 09:51:04;;;;;;;3.03;2.00;;;9.70;99.90;;;;;;472082;251;27890;-73
2022/02/14 09:53:06;;;;;;;4.13;2.27;;;9.80;99.90;;;;;;472112;251;27906;-74
2022/02/14 09:55:07;;;;;;;2.60;2.40;;;9.90;99.90;;;;;;472090;251;27906;-73
2022/02/14 09:57:08;;;;;;;4.03;2.30;;;9.90;99.90;;;;;;472109;251;27757;-76
2022/02/14 09:59:10;;;;;;;3.50;2.17;;;9.90;99.90;;;;;;472116;251;27793;-74
2022/02/14 10:01:11;;;;;;;1.90;1.80;;;9.90;99.90;;;;;;472091;251;27910;-72
2022/02/14 10:03:13;;;;;;;1.60;1.50;;;9.90;99.90;;;;;;472096;251;27796;-72
2022/02/14 10:05:14;;;;;;;1.83;1.73;;;9.90;99.90;;;;;;472101;250;28480;-74
2022/02/14 10:07:14;;;;;;;3.13;2.40;;;9.90;99.90;;;;;;472073;252;28142;-72
2022/02/14 10:09:16;;;;;;;3.00;2.00;;;9.80;99.90;;;;;;472098;251;27959;-73
2022/02/14 10:11:18;;;;;;;2.23;2.03;;;9.80;99.90;;;;;;471474;251;27984;-77
2022/02/14 10:13:18;;;;;;;3.47;2.20;;;9.90;99.90;;;;;;470410;252;27749;-75
2022/02/14 10:15:19;;;;;;;2.60;2.40;;;9.90;99.90;;;;;;470403;251;28069;-73
2022/02/14 10:17:22;;;;;;;2.53;2.30;;;9.90;99.90;;;;;;470420;252;28475;-73
2022/02/14 10:19:22;;;;;;;2.67;2.10;;;10.00;99.90;;;;;;470400;252;28483;-73
2022/02/14 10:21:23;;;;;;;2.30;2.10;;;9.90;99.90;;;;;;470421;252;28517;-73
2022/02/14 10:23:25;;;;;;;1.97;1.87;;;9.90;99.90;;;;;;470422;252;27749;-73
2022/02/14 10:25:26;;;;;;;2.30;2.10;;;10.00;99.90;;;;;;470413;252;27541;-73
2022/02/14 10:27:27;;;;;;;2.43;2.20;;;10.10;99.90;;;;;;470389;252;27901;-73
2022/02/14 10:29:30;;;;;;;3.03;1.97;;;10.10;99.90;;;;;;470419;252;28404;-72
2022/02/14 10:31:30;;;;;;;2.13;2.00;;;10.00;99.90;;;;;;470408;252;28590;-72
2022/02/14 10:33:31;;;;;;;4.07;2.30;;;10.00;99.90;;;;;;470428;252;28475;-73
2022/02/14 10:35:32;;;;;;;3.87;2.30;;;10.10;99.90;;;;;;470411;252;28406;-73
2022/02/14 10:37:33;;;;;;;2.40;2.23;;;10.10;99.90;;;;;;470436;252;28119;-73
2022/02/14 10:39:35;;;;;;;3.03;2.03;;;10.10;99.90;;;;;;470438;252;27986;-74
2022/02/14 10:41:36;;;;;;;3.30;2.50;;;10.20;99.90;;;;;;470414;252;27977;-73